createdAt,value
2022-10-19T00:01:19.410Z,10.77
2022-10-19T00:06:25.872Z,6.28
2022-10-19T00:08:55.655Z,5.47
2022-10-19T00:11:24.771Z,4.88
2022-10-19T00:13:56.251Z,7.20
2022-10-19T00:16:25.802Z,4.63
2022-10-19T00:18:57.889Z,5.60
2022-10-19T00:21:26.773Z,7.22
2022-10-19T00:23:55.417Z,4.55
2022-10-19T00:26:23.935Z,6.63
2022-10-19T00:28:55.956Z,3.85
2022-10-19T00:31:24.539Z,9.13
2022-10-19T00:33:53.579Z,5.78
2022-10-19T00:36:24.208Z,7.82
2022-10-19T00:38:53.501Z,7.63
2022-10-19T00:41:23.143Z,5.78
2022-10-19T00:43:59.633Z,4.93
2022-10-19T00:46:29.289Z,4.43
2022-10-19T00:49:02.154Z,2.75
2022-10-19T00:51:33.761Z,6.88
2022-10-19T00:54:03.336Z,3.60
2022-10-19T00:56:31.728Z,5.75
2022-10-19T00:59:04.067Z,8.82
2022-10-19T01:01:33.976Z,6.68
2022-10-19T01:04:04.116Z,4.78
2022-10-19T01:06:33.988Z,4.00
2022-10-19T01:09:02.579Z,2.90
2022-10-19T01:11:40.893Z,3.30
2022-10-19T01:14:22.985Z,6.70
2022-10-19T01:16:58.162Z,5.50
2022-10-19T01:19:46.206Z,6.00
2022-10-19T01:22:28.018Z,5.30
2022-10-19T01:25:04.798Z,6.32
2022-10-19T01:27:51.834Z,6.20
2022-10-19T01:30:33.279Z,9.65
2022-10-19T01:33:23.301Z,4.95
2022-10-19T01:35:59.600Z,2.67
2022-10-19T01:38:33.818Z,3.15
2022-10-19T01:41:18.829Z,2.17
2022-10-19T01:43:53.561Z,4.80
2022-10-19T01:46:31.327Z,4.07
2022-10-19T01:49:04.451Z,4.13
2022-10-19T01:51:36.793Z,4.72
2022-10-19T01:54:10.497Z,2.10
2022-10-19T01:56:42.290Z,5.20
2022-10-19T01:59:12.613Z,5.45
2022-10-19T02:01:46.322Z,7.07
2022-10-19T02:04:18.967Z,2.08
2022-10-19T02:06:47.685Z,7.43
2022-10-19T02:09:18.333Z,3.05
2022-10-19T02:11:49.729Z,3.85
2022-10-19T02:14:23.351Z,2.28
2022-10-19T02:16:58.463Z,11.77
2022-10-19T02:19:27.208Z,4.38
2022-10-19T02:21:55.884Z,4.70
2022-10-19T02:24:24.178Z,5.05
2022-10-19T02:26:53.850Z,3.53
2022-10-19T02:29:22.460Z,4.45
2022-10-19T02:31:52.390Z,2.78
2022-10-19T02:34:20.871Z,3.47
2022-10-19T02:36:49.417Z,3.35
2022-10-19T02:39:18.011Z,6.25
2022-10-19T02:41:50.976Z,4.00
2022-10-19T02:44:28.684Z,5.82
2022-10-19T02:47:03.550Z,2.72
2022-10-19T02:49:35.188Z,3.55
2022-10-19T02:52:07.120Z,5.70
2022-10-19T02:54:35.838Z,3.45
2022-10-19T02:57:14.764Z,5.78
2022-10-19T02:59:42.967Z,6.10
2022-10-19T03:02:12.921Z,4.15
2022-10-19T03:04:41.824Z,7.88
2022-10-19T03:07:11.558Z,4.25
2022-10-19T03:09:39.997Z,3.00
2022-10-19T03:12:08.446Z,4.20
2022-10-19T03:14:36.705Z,5.97
2022-10-19T03:17:06.048Z,6.45
2022-10-19T03:19:36.504Z,5.47
2022-10-19T03:22:05.684Z,12.88
2022-10-19T03:24:34.433Z,6.18
2022-10-19T03:27:02.956Z,3.42
2022-10-19T03:29:31.195Z,3.33
2022-10-19T03:31:59.810Z,4.50
2022-10-19T03:34:28.433Z,2.55
2022-10-19T03:36:59.306Z,2.70
2022-10-19T03:39:27.646Z,7.95
2022-10-19T03:41:56.102Z,4.07
2022-10-19T03:44:24.307Z,4.20
2022-10-19T03:46:52.879Z,8.32
2022-10-19T03:49:21.232Z,3.75
2022-10-19T03:51:49.707Z,4.15
2022-10-19T03:54:20.660Z,2.38
2022-10-19T03:56:52.042Z,3.72
2022-10-19T03:59:20.293Z,5.30
2022-10-19T04:01:48.850Z,2.50
2022-10-19T04:04:19.031Z,7.75
2022-10-19T04:06:48.817Z,6.88
2022-10-19T04:09:21.240Z,7.78
2022-10-19T04:11:50.163Z,5.32
2022-10-19T04:14:31.713Z,2.63
2022-10-19T04:17:01.668Z,4.18
2022-10-19T04:19:30.074Z,7.18
2022-10-19T04:21:59.140Z,4.13
2022-10-19T04:24:29.472Z,3.25
2022-10-19T04:26:58.259Z,8.70
2022-10-19T04:29:29.934Z,4.80
2022-10-19T04:31:59.758Z,4.03
2022-10-19T04:34:28.475Z,7.57
2022-10-19T04:36:59.467Z,5.93
2022-10-19T04:39:29.278Z,5.07
2022-10-19T04:41:58.276Z,4.47
2022-10-19T04:44:26.741Z,8.02
2022-10-19T04:46:55.484Z,10.77
2022-10-19T04:49:23.968Z,7.57
2022-10-19T04:51:52.407Z,3.47
2022-10-19T04:54:20.901Z,6.03
2022-10-19T04:56:50.709Z,4.47
2022-10-19T04:59:18.987Z,9.98
2022-10-19T05:01:47.588Z,4.60
2022-10-19T05:04:15.857Z,3.92
2022-10-19T05:06:44.461Z,3.90
2022-10-19T05:09:12.927Z,4.55
2022-10-19T05:11:41.412Z,2.92
2022-10-19T05:14:11.022Z,4.85
2022-10-19T05:16:39.771Z,3.28
2022-10-19T05:19:08.067Z,8.27
2022-10-19T05:21:36.514Z,3.63
2022-10-19T05:24:05.192Z,5.10
2022-10-19T05:26:33.667Z,2.45
2022-10-19T05:29:04.429Z,2.70
2022-10-19T05:31:35.593Z,5.22
2022-10-19T05:34:05.044Z,4.45
2022-10-19T05:36:35.429Z,7.95
2022-10-19T05:39:06.144Z,6.82
2022-10-19T05:41:35.305Z,10.63
2022-10-19T05:44:04.855Z,5.65
2022-10-19T05:46:35.865Z,4.80
2022-10-19T05:49:04.522Z,5.03
2022-10-19T05:51:33.053Z,4.70
2022-10-19T05:54:01.533Z,6.03
2022-10-19T05:56:31.498Z,5.28
2022-10-19T05:59:01.554Z,7.82
2022-10-19T06:01:31.035Z,8.15
2022-10-19T06:04:02.146Z,14.43
2022-10-19T06:06:32.091Z,10.43
2022-10-19T06:09:01.033Z,8.82
2022-10-19T06:11:33.791Z,8.05
2022-10-19T06:14:04.634Z,4.18
2022-10-19T06:16:34.360Z,4.03
2022-10-19T06:19:05.109Z,6.43
2022-10-19T06:21:34.464Z,5.60
2022-10-19T06:24:05.402Z,7.53
2022-10-19T06:26:36.028Z,6.80
2022-10-19T06:29:06.058Z,5.30
2022-10-19T06:31:36.682Z,2.15
2022-10-19T06:34:06.504Z,5.97
2022-10-19T06:36:35.634Z,3.30
2022-10-19T06:39:05.259Z,3.92
2022-10-19T06:41:34.302Z,4.57
2022-10-19T06:44:02.739Z,6.07
2022-10-19T06:46:32.305Z,8.02
2022-10-19T06:49:02.712Z,4.72
2022-10-19T06:51:34.100Z,3.65
2022-10-19T06:54:02.907Z,5.35
2022-10-19T06:56:31.419Z,2.25
2022-10-19T06:59:00.295Z,4.60
2022-10-19T07:01:28.964Z,5.22
2022-10-19T07:03:57.740Z,11.35
2022-10-19T07:06:28.914Z,10.57
2022-10-19T07:08:58.532Z,4.43
2022-10-19T07:11:27.090Z,4.90
2022-10-19T07:13:55.913Z,5.25
2022-10-19T07:16:24.525Z,5.00
2022-10-19T07:18:54.069Z,7.10
2022-10-19T07:21:24.260Z,5.22
2022-10-19T07:23:53.135Z,3.78
2022-10-19T07:26:30.520Z,4.95
2022-10-19T07:28:58.849Z,2.60
2022-10-19T07:31:29.720Z,6.60
2022-10-19T07:33:59.704Z,5.55
2022-10-19T07:36:29.348Z,5.97
2022-10-19T07:38:58.458Z,2.83
2022-10-19T07:41:28.946Z,2.90
2022-10-19T07:43:57.868Z,12.38
2022-10-19T07:46:29.150Z,3.15
2022-10-19T07:48:57.471Z,7.78
2022-10-19T07:51:26.297Z,5.53
2022-10-19T07:53:54.972Z,3.80
2022-10-19T07:56:25.411Z,2.45
2022-10-19T07:58:56.624Z,5.78
2022-10-19T08:01:26.749Z,5.20
2022-10-19T08:04:43.214Z,4.75
2022-10-19T08:06:45.117Z,8.57
2022-10-19T08:09:33.329Z,2.42
2022-10-19T08:12:02.845Z,3.58
2022-10-19T08:14:32.832Z,5.30
2022-10-19T08:17:01.646Z,3.28
2022-10-19T08:19:30.261Z,3.50
2022-10-19T08:21:58.704Z,1.40
2022-10-19T08:24:26.921Z,1.88
2022-10-19T08:26:55.651Z,1.58
2022-10-19T08:29:25.598Z,9.70
2022-10-19T08:31:57.632Z,1.67
2022-10-19T08:34:26.063Z,2.22
2022-10-19T08:36:54.582Z,3.10
2022-10-19T08:39:23.046Z,1.70
2022-10-19T08:42:00.627Z,9.05
2022-10-19T08:44:48.258Z,2.92
2022-10-19T08:47:26.810Z,1.90
2022-10-19T08:49:55.966Z,1.27
2022-10-19T08:52:33.422Z,1.17
2022-10-19T08:55:06.134Z,0.95
2022-10-19T08:57:42.281Z,2.42
2022-10-19T09:00:16.304Z,6.35
2022-10-19T09:03:00.769Z,0.93
2022-10-19T09:05:36.972Z,4.50
2022-10-19T09:08:05.794Z,0.60
2022-10-19T09:10:37.485Z,1.08
2022-10-19T09:13:12.463Z,1.75
2022-10-19T09:15:43.214Z,1.10
2022-10-19T09:18:19.971Z,0.57
2022-10-19T09:20:50.505Z,0.77
2022-10-19T09:23:26.741Z,1.02
2022-10-19T09:25:57.322Z,2.85
2022-10-19T09:28:41.354Z,0.93
2022-10-19T09:31:16.628Z,0.80
2022-10-19T09:33:53.244Z,0.55
2022-10-19T09:36:27.567Z,0.73
2022-10-19T09:39:01.963Z,1.13
2022-10-19T09:41:30.616Z,1.35
2022-10-19T09:43:59.586Z,1.52
2022-10-19T09:46:37.031Z,0.63
2022-10-19T09:49:08.587Z,0.93
2022-10-19T09:51:50.379Z,3.65
2022-10-19T09:54:34.598Z,0.70
2022-10-19T09:57:03.775Z,2.40
2022-10-19T09:59:36.759Z,2.78
2022-10-19T10:02:20.723Z,0.60
2022-10-19T10:04:57.461Z,0.77
2022-10-19T10:07:33.959Z,0.77
2022-10-19T10:10:02.801Z,0.40
2022-10-19T10:12:31.528Z,1.95
2022-10-19T10:15:00.905Z,0.40
2022-10-19T10:17:32.006Z,1.63
2022-10-19T10:20:20.340Z,0.63
2022-10-19T10:22:56.934Z,0.47
2022-10-19T10:25:28.207Z,0.90
2022-10-19T10:28:00.661Z,1.08
2022-10-19T10:30:34.922Z,2.40
2022-10-19T10:33:13.321Z,4.32
2022-10-19T10:35:53.653Z,3.00
2022-10-19T10:38:27.280Z,1.38
2022-10-19T10:40:58.684Z,2.05
2022-10-19T10:43:31.813Z,1.48
2022-10-19T10:46:05.295Z,0.52
2022-10-19T10:48:37.473Z,0.70
2022-10-19T10:51:20.723Z,1.13
2022-10-19T10:53:49.562Z,0.88
2022-10-19T10:56:29.035Z,0.50
2022-10-19T10:59:01.681Z,0.70
2022-10-19T11:01:33.996Z,0.60
2022-10-19T11:04:05.931Z,0.68
2022-10-19T11:06:44.442Z,0.63
2022-10-19T11:09:19.400Z,2.55
2022-10-19T11:11:50.783Z,0.88
2022-10-19T11:14:33.768Z,1.48
2022-10-19T11:17:07.041Z,1.10
2022-10-19T11:19:37.720Z,0.47
2022-10-19T11:22:17.752Z,0.85
2022-10-19T11:24:59.249Z,1.30
2022-10-19T11:27:39.250Z,2.00
2022-10-19T11:30:13.832Z,2.47
2022-10-19T11:32:58.882Z,0.60
2022-10-19T11:35:39.469Z,1.98
2022-10-19T11:38:24.101Z,0.57
2022-10-19T11:41:16.786Z,0.75
2022-10-19T11:43:57.653Z,0.65
2022-10-19T11:46:32.103Z,1.15
2022-10-19T11:49:11.272Z,1.05
2022-10-19T11:51:45.928Z,0.50
2022-10-19T11:54:29.756Z,0.75
2022-10-19T11:57:06.437Z,0.43
2022-10-19T12:00:00.222Z,1.17
2022-10-19T12:03:10.279Z,0.60
2022-10-19T12:05:46.655Z,0.40
2022-10-19T12:08:30.519Z,0.95
2022-10-19T12:11:06.486Z,0.70
2022-10-19T12:13:41.809Z,0.50
2022-10-19T12:16:12.971Z,1.88
2022-10-19T12:18:45.899Z,0.50
2022-10-19T12:21:20.998Z,0.73
2022-10-19T12:23:50.450Z,4.82
2022-10-19T12:26:22.981Z,0.50
2022-10-19T12:28:54.868Z,0.60
2022-10-19T12:31:25.361Z,0.65
2022-10-19T12:34:02.443Z,0.40
2022-10-19T12:36:38.908Z,0.50
2022-10-19T12:39:14.336Z,0.50
2022-10-19T12:41:52.310Z,0.50
2022-10-19T12:44:35.411Z,0.75
2022-10-19T12:47:11.388Z,0.50
2022-10-19T12:49:50.391Z,0.63
2022-10-19T12:52:45.980Z,0.60
2022-10-19T12:55:35.669Z,1.67
2022-10-19T12:58:07.795Z,0.82
2022-10-19T13:00:38.798Z,0.50
2022-10-19T13:03:15.398Z,0.80
2022-10-19T13:05:43.872Z,1.40
2022-10-19T13:08:29.127Z,1.48
2022-10-19T13:11:10.062Z,0.55
2022-10-19T13:14:00.218Z,0.95
2022-10-19T13:16:42.411Z,0.60
2022-10-19T13:19:28.804Z,0.80
2022-10-19T13:22:29.584Z,0.70
2022-10-19T13:25:23.571Z,0.55
2022-10-19T13:27:52.801Z,1.63
2022-10-19T13:31:06.150Z,1.65
2022-10-19T13:33:50.895Z,1.05
2022-10-19T13:36:21.133Z,1.42
2022-10-19T13:39:15.399Z,1.48
2022-10-19T13:41:53.162Z,0.60
2022-10-19T13:44:27.974Z,0.70
2022-10-19T13:47:17.754Z,0.60
2022-10-19T13:50:04.314Z,2.63
2022-10-19T13:52:53.252Z,1.30
2022-10-19T13:56:06.109Z,0.52
2022-10-19T13:59:14.707Z,1.15
2022-10-19T14:01:56.789Z,0.75
2022-10-19T14:04:37.463Z,0.70
2022-10-19T14:07:12.846Z,1.00
2022-10-19T14:10:14.300Z,12.00
2022-10-19T14:12:45.190Z,1.27
2022-10-19T14:15:22.991Z,1.02
2022-10-19T14:17:51.439Z,1.27
2022-10-19T14:20:31.142Z,1.75
2022-10-19T14:22:59.948Z,2.17
2022-10-19T14:25:29.776Z,0.40
2022-10-19T14:28:01.800Z,6.72
2022-10-19T14:30:32.548Z,2.67
2022-10-19T14:33:02.699Z,1.77
2022-10-19T14:35:35.768Z,0.40
2022-10-19T14:38:06.208Z,1.48
2022-10-19T14:40:38.878Z,1.38
2022-10-19T14:43:21.874Z,0.60
2022-10-19T14:46:13.206Z,0.80
2022-10-19T14:48:45.341Z,1.00
2022-10-19T14:51:30.744Z,0.40
2022-10-19T14:54:04.480Z,0.80
2022-10-19T14:56:38.004Z,0.63
2022-10-19T14:59:16.847Z,0.93
2022-10-19T15:01:50.194Z,0.60
2022-10-19T15:04:21.518Z,0.73
2022-10-19T15:06:51.765Z,0.50
2022-10-19T15:09:37.135Z,0.60
2022-10-19T15:12:18.037Z,5.60
2022-10-19T15:14:48.426Z,0.50
2022-10-19T15:17:28.748Z,2.20
2022-10-19T15:19:59.996Z,0.60
2022-10-19T15:22:41.215Z,0.80
2022-10-19T15:25:29.163Z,1.08
2022-10-19T15:27:57.806Z,0.60
2022-10-19T15:30:29.193Z,1.38
2022-10-19T15:33:11.752Z,1.15
2022-10-19T15:35:41.904Z,0.93
2022-10-19T15:38:20.520Z,5.68
2022-10-19T15:40:49.418Z,0.70
2022-10-19T15:43:44.304Z,1.98
2022-10-19T15:46:28.419Z,3.13
2022-10-19T15:48:58.590Z,1.23
2022-10-19T15:51:45.317Z,0.52
2022-10-19T15:54:19.950Z,0.60
2022-10-19T15:56:52.927Z,1.65
2022-10-19T15:59:23.873Z,0.75
2022-10-19T16:01:53.760Z,0.52
2022-10-19T16:04:24.383Z,1.55
2022-10-19T16:06:52.705Z,1.08
2022-10-19T16:09:23.446Z,0.63
2022-10-19T16:11:56.708Z,0.70
2022-10-19T16:14:26.488Z,2.90
2022-10-19T16:16:55.782Z,1.75
2022-10-19T16:19:24.338Z,0.70
2022-10-19T16:21:52.600Z,2.65
2022-10-19T16:24:23.011Z,8.57
2022-10-19T16:26:51.330Z,0.90
2022-10-19T16:29:20.132Z,1.75
2022-10-19T16:31:48.395Z,3.72
2022-10-19T16:34:16.849Z,1.48
2022-10-19T16:36:45.166Z,1.00
2022-10-19T16:39:13.874Z,2.08
2022-10-19T16:41:44.999Z,1.83
2022-10-19T16:44:13.946Z,3.78
2022-10-19T16:46:42.280Z,2.92
2022-10-19T16:49:10.708Z,2.35
2022-10-19T16:51:39.567Z,2.05
2022-10-19T16:54:09.866Z,3.17
2022-10-19T16:56:43.360Z,5.65
2022-10-19T16:59:14.991Z,1.80
2022-10-19T17:01:44.896Z,3.00
2022-10-19T17:04:13.967Z,1.80
2022-10-19T17:06:42.732Z,3.00
2022-10-19T17:09:42.647Z,3.58
2022-10-19T17:11:59.831Z,6.68
2022-10-19T17:14:29.649Z,2.20
2022-10-19T17:16:57.940Z,2.05
2022-10-19T17:19:26.616Z,3.20
2022-10-19T17:21:57.674Z,2.10
2022-10-19T17:24:26.498Z,2.45
2022-10-19T17:26:55.045Z,2.35
2022-10-19T17:29:24.349Z,4.40
2022-10-19T17:31:54.041Z,3.80
2022-10-19T17:34:22.499Z,2.53
2022-10-19T17:36:50.799Z,2.60
2022-10-19T17:39:24.408Z,2.83
2022-10-19T17:41:55.973Z,2.72
2022-10-19T17:44:24.434Z,2.00
2022-10-19T17:46:54.558Z,2.20
2022-10-19T17:49:23.133Z,4.28
2022-10-19T17:51:53.673Z,5.32
2022-10-19T17:54:22.205Z,2.50
2022-10-19T17:56:50.607Z,3.35
2022-10-19T17:59:25.913Z,2.65
2022-10-19T18:02:04.916Z,4.55
2022-10-19T18:04:33.390Z,5.07
2022-10-19T18:07:01.741Z,3.60
2022-10-19T18:09:30.191Z,2.25
2022-10-19T18:11:59.390Z,3.88
2022-10-19T18:14:30.069Z,2.42
2022-10-19T18:16:58.555Z,1.92
2022-10-19T18:19:28.400Z,2.28
2022-10-19T18:21:56.606Z,4.03
2022-10-19T18:24:25.201Z,2.83
2022-10-19T18:26:53.746Z,3.47
2022-10-19T18:29:24.160Z,3.17
2022-10-19T18:31:53.134Z,1.80
2022-10-19T18:34:23.655Z,3.65
2022-10-19T18:36:54.325Z,1.77
2022-10-19T18:39:23.356Z,4.10
2022-10-19T18:41:54.461Z,4.20
2022-10-19T18:44:26.596Z,7.80
2022-10-19T18:46:57.216Z,5.32
2022-10-19T18:49:25.853Z,8.88
2022-10-19T18:51:56.140Z,6.05
2022-10-19T18:54:26.536Z,7.30
2022-10-19T18:56:55.331Z,4.50
2022-10-19T18:59:24.200Z,7.50
2022-10-19T19:01:53.133Z,5.90
2022-10-19T19:04:21.610Z,7.03
2022-10-19T19:06:49.936Z,6.65
2022-10-19T19:09:21.200Z,6.82
2022-10-19T19:11:50.099Z,5.25
2022-10-19T19:14:21.015Z,8.85
2022-10-19T19:16:49.609Z,6.63
2022-10-19T19:19:19.941Z,2.85
2022-10-19T19:21:49.834Z,4.35
2022-10-19T19:24:21.878Z,5.18
2022-10-19T19:26:53.521Z,6.38
2022-10-19T19:29:23.423Z,4.10
2022-10-19T19:31:53.471Z,3.65
2022-10-19T19:34:22.277Z,5.53
2022-10-19T19:36:50.854Z,4.38
2022-10-19T19:39:22.167Z,5.00
2022-10-19T19:41:51.267Z,5.20
2022-10-19T19:44:20.196Z,2.92
2022-10-19T19:46:48.556Z,4.50
2022-10-19T19:49:17.218Z,3.05
2022-10-19T19:51:45.510Z,1.70
2022-10-19T19:54:14.149Z,9.32
2022-10-19T19:56:43.840Z,4.22
2022-10-19T19:59:13.926Z,5.32
2022-10-19T20:01:42.564Z,4.68
2022-10-19T20:04:11.903Z,5.75
2022-10-19T20:06:41.455Z,3.90
2022-10-19T20:09:10.787Z,5.22
2022-10-19T20:11:42.441Z,8.85
2022-10-19T20:14:13.443Z,10.45
2022-10-19T20:16:41.884Z,7.10
2022-10-19T20:19:12.478Z,8.55
2022-10-19T20:21:41.549Z,8.60
2022-10-19T20:24:10.793Z,6.78
2022-10-19T20:26:39.329Z,13.68
2022-10-19T20:29:08.368Z,9.80
2022-10-19T20:31:40.604Z,11.82
2022-10-19T20:34:11.091Z,8.55
2022-10-19T20:36:39.898Z,12.20
2022-10-19T20:39:08.473Z,10.07
2022-10-19T20:41:37.048Z,9.40
2022-10-19T20:44:05.775Z,16.63
2022-10-19T20:46:34.582Z,11.10
2022-10-19T20:49:04.897Z,11.00
2022-10-19T20:51:36.776Z,11.15
2022-10-19T20:54:07.739Z,11.77
2022-10-19T20:56:38.493Z,9.60
2022-10-19T20:59:08.599Z,7.85
2022-10-19T21:01:39.126Z,13.98
2022-10-19T21:04:10.504Z,10.43
2022-10-19T21:06:40.009Z,12.88
2022-10-19T21:09:09.605Z,8.30
2022-10-19T21:11:41.262Z,8.18
2022-10-19T21:14:12.614Z,13.20
2022-10-19T21:16:41.380Z,13.35
2022-10-19T21:19:14.376Z,9.48
2022-10-19T21:21:45.153Z,15.18
2022-10-19T21:24:16.984Z,10.35
2022-10-19T21:26:46.095Z,8.52
2022-10-19T21:29:15.766Z,7.90
2022-10-19T21:31:48.639Z,11.82
2022-10-19T21:34:21.211Z,10.98
2022-10-19T21:36:49.873Z,6.70
2022-10-19T21:39:19.647Z,7.15
2022-10-19T21:41:48.574Z,10.40
2022-10-19T21:44:18.288Z,14.15
2022-10-19T21:46:48.932Z,10.35
2022-10-19T21:49:19.174Z,8.85
2022-10-19T21:51:49.847Z,9.00
2022-10-19T21:54:20.656Z,9.15
2022-10-19T21:56:49.941Z,6.47
2022-10-19T21:59:19.125Z,13.13
2022-10-19T22:01:47.491Z,9.82
2022-10-19T22:04:19.992Z,9.45
2022-10-19T22:06:49.117Z,11.55
2022-10-19T22:09:19.304Z,8.80
2022-10-19T22:11:48.097Z,7.03
2022-10-19T22:14:17.642Z,9.68
2022-10-19T22:16:46.322Z,7.60
2022-10-19T22:19:15.343Z,8.73
2022-10-19T22:21:44.982Z,12.63
2022-10-19T22:24:15.688Z,9.83
2022-10-19T22:26:46.452Z,5.95
2022-10-19T22:29:15.328Z,7.00
2022-10-19T22:31:44.028Z,8.77
2022-10-19T22:34:14.653Z,5.80
2022-10-19T22:36:44.723Z,11.55
2022-10-19T22:39:13.931Z,9.70
2022-10-19T22:41:42.246Z,10.63
2022-10-19T22:44:10.689Z,7.97
2022-10-19T22:46:38.865Z,6.93
2022-10-19T22:51:40.424Z,8.97
2022-10-19T22:54:10.312Z,10.68
2022-10-19T22:56:38.597Z,13.57
2022-10-19T22:59:07.719Z,6.40
2022-10-19T23:01:36.628Z,8.95
2022-10-19T23:04:05.185Z,7.80
2022-10-19T23:06:33.688Z,12.27
2022-10-19T23:09:02.086Z,11.70
2022-10-19T23:11:31.669Z,8.65
2022-10-19T23:14:00.157Z,5.82
2022-10-19T23:19:01.829Z,8.75
2022-10-19T23:21:30.156Z,9.68
2022-10-19T23:23:58.650Z,9.60
2022-10-19T23:26:27.059Z,6.90
2022-10-19T23:28:56.831Z,13.90
2022-10-19T23:31:26.616Z,7.27
2022-10-19T23:33:55.828Z,8.02
2022-10-19T23:36:26.854Z,15.97
2022-10-19T23:38:56.784Z,8.37
2022-10-19T23:41:25.591Z,8.23
2022-10-19T23:43:54.169Z,9.53
2022-10-19T23:46:23.811Z,8.48
2022-10-19T23:48:52.540Z,7.95
2022-10-19T23:51:22.378Z,11.40
2022-10-19T23:53:52.944Z,6.53
2022-10-19T23:56:23.127Z,6.60
2022-10-19T23:58:52.592Z,9.57
